sensor_id;sensor_type;location;lat;lon;timestamp;temperature;humidity
7028;DHT22;3555;53.248;10.336;2023-02-01T00:00:13;4.90;99.90
7028;DHT22;3555;53.248;10.336;2023-02-01T00:02:40;4.90;99.90
7028;DHT22;3555;53.248;10.336;2023-02-01T00:05:07;4.90;99.90
7028;DHT22;3555;53.248;10.336;2023-02-01T00:07:35;4.90;99.90
7028;DHT22;3555;53.248;10.336;2023-02-01T00:10:02;4.90;99.90
7028;DHT22;3555;53.248;10.336;2023-02-01T00:12:29;4.90;99.90
7028;DHT22;3555;53.248;10.336;2023-02-01T00:14:58;4.90;99.90
7028;DHT22;3555;53.248;10.336;2023-02-01T00:17:25;4.80;99.90
7028;DHT22;3555;53.248;10.336;2023-02-01T00:19:52;4.90;99.90
7028;DHT22;3555;53.248;10.336;2023-02-01T00:22:18;4.80;99.90
7028;DHT22;3555;53.248;10.336;2023-02-01T00:24:45;4.80;99.90
7028;DHT22;3555;53.248;10.336;2023-02-01T00:27:12;4.80;99.90
7028;DHT22;3555;53.248;10.336;2023-02-01T00:29:43;4.90;99.90
7028;DHT22;3555;53.248;10.336;2023-02-01T00:32:12;4.90;99.90
7028;DHT22;3555;53.248;10.336;2023-02-01T00:34:39;4.90;99.90
7028;DHT22;3555;53.248;10.336;2023-02-01T00:37:06;4.90;99.90
7028;DHT22;3555;53.248;10.336;2023-02-01T00:39:33;4.90;99.90
7028;DHT22;3555;53.248;10.336;2023-02-01T00:42:00;4.90;99.90
7028;DHT22;3555;53.248;10.336;2023-02-01T00:44:27;4.80;99.90
7028;DHT22;3555;53.248;10.336;2023-02-01T00:46:58;4.80;99.90
7028;DHT22;3555;53.248;10.336;2023-02-01T00:49:27;4.90;99.90
7028;DHT22;3555;53.248;10.336;2023-02-01T00:51:55;4.90;99.90
7028;DHT22;3555;53.248;10.336;2023-02-01T00:54:22;4.90;99.90
7028;DHT22;3555;53.248;10.336;2023-02-01T00:56:49;5.00;99.90
7028;DHT22;3555;53.248;10.336;2023-02-01T00:59:16;5.00;99.90
7028;DHT22;3555;53.248;10.336;2023-02-01T01:01:43;5.00;99.90
7028;DHT22;3555;53.248;10.336;2023-02-01T01:04:09;5.00;99.90
7028;DHT22;3555;53.248;10.336;2023-02-01T01:06:38;5.00;99.90
7028;DHT22;3555;53.248;10.336;2023-02-01T01:09:07;5.00;99.90
7028;DHT22;3555;53.248;10.336;2023-02-01T01:11:37;5.00;99.90
7028;DHT22;3555;53.248;10.336;2023-02-01T01:14:05;5.10;99.90
7028;DHT22;3555;53.248;10.336;2023-02-01T01:16:32;5.00;99.90
7028;DHT22;3555;53.248;10.336;2023-02-01T01:19:00;5.10;99.90
7028;DHT22;3555;53.248;10.336;2023-02-01T01:21:28;5.10;99.90
7028;DHT22;3555;53.248;10.336;2023-02-01T01:23:56;5.10;99.90
7028;DHT22;3555;53.248;10.336;2023-02-01T01:26:25;5.20;99.90
7028;DHT22;3555;53.248;10.336;2023-02-01T01:28:52;5.10;99.90
7028;DHT22;3555;53.248;10.336;2023-02-01T01:31:20;5.20;99.90
7028;DHT22;3555;53.248;10.336;2023-02-01T01:33:52;5.20;99.90
7028;DHT22;3555;53.248;10.336;2023-02-01T01:36:20;5.20;99.90
7028;DHT22;3555;53.248;10.336;2023-02-01T01:38:47;5.20;99.90
7028;DHT22;3555;53.248;10.336;2023-02-01T01:41:20;5.20;99.90
7028;DHT22;3555;53.248;10.336;2023-02-01T01:43:53;6.00;99.90
7028;DHT22;3555;53.248;10.336;2023-02-01T01:46:22;5.20;99.90
7028;DHT22;3555;53.248;10.336;2023-02-01T01:48:53;5.30;99.90
7028;DHT22;3555;53.248;10.336;2023-02-01T01:51:23;5.30;99.90
7028;DHT22;3555;53.248;10.336;2023-02-01T01:53:58;5.20;99.90
7028;DHT22;3555;53.248;10.336;2023-02-01T01:56:29;5.20;99.90
7028;DHT22;3555;53.248;10.336;2023-02-01T01:58:56;5.20;99.90
7028;DHT22;3555;53.248;10.336;2023-02-01T02:01:23;5.20;99.90
7028;DHT22;3555;53.248;10.336;2023-02-01T02:03:51;5.20;99.90
7028;DHT22;3555;53.248;10.336;2023-02-01T02:06:26;5.20;99.90
7028;DHT22;3555;53.248;10.336;2023-02-01T02:08:55;5.20;99.90
7028;DHT22;3555;53.248;10.336;2023-02-01T02:11:22;5.20;99.90
7028;DHT22;3555;53.248;10.336;2023-02-01T02:13:52;5.10;99.90
7028;DHT22;3555;53.248;10.336;2023-02-01T02:16:39;5.20;99.90
7028;DHT22;3555;53.248;10.336;2023-02-01T02:19:28;5.10;99.90
7028;DHT22;3555;53.248;10.336;2023-02-01T02:25:31;5.10;99.90
7028;DHT22;3555;53.248;10.336;2023-02-01T02:28:06;5.10;99.90
7028;DHT22;3555;53.248;10.336;2023-02-01T02:30:48;5.10;99.90
7028;DHT22;3555;53.248;10.336;2023-02-01T02:33:49;5.10;99.90
7028;DHT22;3555;53.248;10.336;2023-02-01T02:36:22;5.20;99.90
7028;DHT22;3555;53.248;10.336;2023-02-01T02:39:00;5.10;99.90
7028;DHT22;3555;53.248;10.336;2023-02-01T02:41:34;5.10;99.90
7028;DHT22;3555;53.248;10.336;2023-02-01T02:44:25;5.20;99.90
7028;DHT22;3555;53.248;10.336;2023-02-01T02:47:21;5.20;99.90
7028;DHT22;3555;53.248;10.336;2023-02-01T02:49:58;5.10;99.90
7028;DHT22;3555;53.248;10.336;2023-02-01T02:52:51;5.20;99.90
7028;DHT22;3555;53.248;10.336;2023-02-01T02:55:38;5.20;99.90
7028;DHT22;3555;53.248;10.336;2023-02-01T02:58:07;5.20;99.90
7028;DHT22;3555;53.248;10.336;2023-02-01T03:00:53;5.20;99.90
7028;DHT22;3555;53.248;10.336;2023-02-01T03:03:39;5.20;99.90
7028;DHT22;3555;53.248;10.336;2023-02-01T03:06:25;5.10;99.90
7028;DHT22;3555;53.248;10.336;2023-02-01T03:08:56;5.10;99.90
7028;DHT22;3555;53.248;10.336;2023-02-01T03:11:25;5.10;99.90
7028;DHT22;3555;53.248;10.336;2023-02-01T03:14:15;5.10;99.90
7028;DHT22;3555;53.248;10.336;2023-02-01T03:16:46;5.10;99.90
7028;DHT22;3555;53.248;10.336;2023-02-01T03:19:18;5.10;99.90
7028;DHT22;3555;53.248;10.336;2023-02-01T03:21:50;5.10;99.90
7028;DHT22;3555;53.248;10.336;2023-02-01T03:24:20;5.10;99.90
7028;DHT22;3555;53.248;10.336;2023-02-01T03:26:52;5.10;99.90
7028;DHT22;3555;53.248;10.336;2023-02-01T03:29:23;5.00;99.90
7028;DHT22;3555;53.248;10.336;2023-02-01T03:31:51;5.10;99.90
7028;DHT22;3555;53.248;10.336;2023-02-01T03:34:18;5.00;99.90
7028;DHT22;3555;53.248;10.336;2023-02-01T03:36:49;4.90;99.90
7028;DHT22;3555;53.248;10.336;2023-02-01T03:39:22;4.90;99.90
7028;DHT22;3555;53.248;10.336;2023-02-01T03:41:53;4.80;99.90
7028;DHT22;3555;53.248;10.336;2023-02-01T03:44:23;4.90;99.90
7028;DHT22;3555;53.248;10.336;2023-02-01T03:46:54;4.90;99.90
7028;DHT22;3555;53.248;10.336;2023-02-01T03:49:23;4.80;99.90
7028;DHT22;3555;53.248;10.336;2023-02-01T03:51:54;4.80;99.90
7028;DHT22;3555;53.248;10.336;2023-02-01T03:54:23;4.80;99.90
7028;DHT22;3555;53.248;10.336;2023-02-01T03:56:51;4.70;99.90
7028;DHT22;3555;53.248;10.336;2023-02-01T03:59:20;4.70;99.90
7028;DHT22;3555;53.248;10.336;2023-02-01T04:01:47;4.60;99.90
7028;DHT22;3555;53.248;10.336;2023-02-01T04:04:14;4.50;99.90
7028;DHT22;3555;53.248;10.336;2023-02-01T04:06:45;4.40;99.90
7028;DHT22;3555;53.248;10.336;2023-02-01T04:09:13;4.30;99.90
7028;DHT22;3555;53.248;10.336;2023-02-01T04:11:40;4.10;99.90
7028;DHT22;3555;53.248;10.336;2023-02-01T04:14:07;4.00;99.90
7028;DHT22;3555;53.248;10.336;2023-02-01T04:16:34;4.00;99.90
7028;DHT22;3555;53.248;10.336;2023-02-01T04:19:01;4.10;99.90
7028;DHT22;3555;53.248;10.336;2023-02-01T04:21:28;4.10;99.90
7028;DHT22;3555;53.248;10.336;2023-02-01T04:23:55;4.10;99.90
7028;DHT22;3555;53.248;10.336;2023-02-01T04:26:24;4.10;99.90
7028;DHT22;3555;53.248;10.336;2023-02-01T04:28:51;4.00;99.90
7028;DHT22;3555;53.248;10.336;2023-02-01T04:31:18;4.10;99.90
7028;DHT22;3555;53.248;10.336;2023-02-01T04:33:51;4.00;99.90
7028;DHT22;3555;53.248;10.336;2023-02-01T04:36:18;4.00;99.90
7028;DHT22;3555;53.248;10.336;2023-02-01T04:38:47;4.00;99.90
7028;DHT22;3555;53.248;10.336;2023-02-01T04:41:14;4.00;99.90
7028;DHT22;3555;53.248;10.336;2023-02-01T04:43:45;3.90;99.90
7028;DHT22;3555;53.248;10.336;2023-02-01T04:46:12;3.90;99.90
7028;DHT22;3555;53.248;10.336;2023-02-01T04:48:40;3.90;99.90
7028;DHT22;3555;53.248;10.336;2023-02-01T04:51:06;4.00;99.90
7028;DHT22;3555;53.248;10.336;2023-02-01T04:53:34;3.90;99.90
7028;DHT22;3555;53.248;10.336;2023-02-01T04:56:00;3.90;99.90
7028;DHT22;3555;53.248;10.336;2023-02-01T04:58:27;4.00;99.90
7028;DHT22;3555;53.248;10.336;2023-02-01T05:00:56;4.10;99.90
7028;DHT22;3555;53.248;10.336;2023-02-01T05:03:22;4.00;99.90
7028;DHT22;3555;53.248;10.336;2023-02-01T05:05:49;4.00;99.90
7028;DHT22;3555;53.248;10.336;2023-02-01T05:08:18;3.90;99.90
7028;DHT22;3555;53.248;10.336;2023-02-01T05:10:48;3.90;99.90
7028;DHT22;3555;53.248;10.336;2023-02-01T05:13:14;3.90;99.90
7028;DHT22;3555;53.248;10.336;2023-02-01T05:16:00;3.80;99.90
7028;DHT22;3555;53.248;10.336;2023-02-01T05:18:27;3.80;99.90
7028;DHT22;3555;53.248;10.336;2023-02-01T05:20:54;3.80;99.90
7028;DHT22;3555;53.248;10.336;2023-02-01T05:23:21;3.80;99.90
7028;DHT22;3555;53.248;10.336;2023-02-01T05:25:48;3.70;99.90
7028;DHT22;3555;53.248;10.336;2023-02-01T05:28:15;3.60;99.90
7028;DHT22;3555;53.248;10.336;2023-02-01T05:30:42;3.70;99.90
7028;DHT22;3555;53.248;10.336;2023-02-01T05:33:10;3.70;99.90
7028;DHT22;3555;53.248;10.336;2023-02-01T05:35:37;3.80;99.90
7028;DHT22;3555;53.248;10.336;2023-02-01T05:38:03;3.90;99.90
7028;DHT22;3555;53.248;10.336;2023-02-01T05:40:30;3.90;99.90
7028;DHT22;3555;53.248;10.336;2023-02-01T05:42:57;3.90;99.90
7028;DHT22;3555;53.248;10.336;2023-02-01T05:45:24;4.40;99.90
7028;DHT22;3555;53.248;10.336;2023-02-01T05:47:51;4.00;99.90
7028;DHT22;3555;53.248;10.336;2023-02-01T05:50:19;3.90;99.90
7028;DHT22;3555;53.248;10.336;2023-02-01T05:52:46;3.70;99.90
7028;DHT22;3555;53.248;10.336;2023-02-01T05:55:13;3.60;99.90
7028;DHT22;3555;53.248;10.336;2023-02-01T05:57:40;3.60;99.90
7028;DHT22;3555;53.248;10.336;2023-02-01T06:00:08;3.70;99.90
7028;DHT22;3555;53.248;10.336;2023-02-01T06:02:35;3.60;99.90
7028;DHT22;3555;53.248;10.336;2023-02-01T06:05:02;3.60;99.90
7028;DHT22;3555;53.248;10.336;2023-02-01T06:07:31;3.60;99.90
7028;DHT22;3555;53.248;10.336;2023-02-01T06:09:58;3.60;99.90
7028;DHT22;3555;53.248;10.336;2023-02-01T06:12:25;3.50;99.90
7028;DHT22;3555;53.248;10.336;2023-02-01T06:14:53;3.40;99.90
7028;DHT22;3555;53.248;10.336;2023-02-01T06:17:20;3.30;99.90
7028;DHT22;3555;53.248;10.336;2023-02-01T06:19:47;3.10;99.90
7028;DHT22;3555;53.248;10.336;2023-02-01T06:22:14;3.10;99.90
7028;DHT22;3555;53.248;10.336;2023-02-01T06:24:42;3.00;99.90
7028;DHT22;3555;53.248;10.336;2023-02-01T06:27:10;3.00;99.90
7028;DHT22;3555;53.248;10.336;2023-02-01T06:29:38;3.00;99.90
7028;DHT22;3555;53.248;10.336;2023-02-01T06:32:05;3.00;99.90
7028;DHT22;3555;53.248;10.336;2023-02-01T06:34:32;3.10;99.90
7028;DHT22;3555;53.248;10.336;2023-02-01T06:36:59;2.90;99.90
7028;DHT22;3555;53.248;10.336;2023-02-01T06:39:26;2.80;99.90
7028;DHT22;3555;53.248;10.336;2023-02-01T06:41:55;2.80;99.90
7028;DHT22;3555;53.248;10.336;2023-02-01T06:44:22;2.80;99.90
7028;DHT22;3555;53.248;10.336;2023-02-01T06:46:48;2.70;99.90
7028;DHT22;3555;53.248;10.336;2023-02-01T06:49:15;2.70;99.90
7028;DHT22;3555;53.248;10.336;2023-02-01T06:51:43;2.80;99.90
7028;DHT22;3555;53.248;10.336;2023-02-01T06:54:10;2.70;99.90
7028;DHT22;3555;53.248;10.336;2023-02-01T06:56:37;2.80;99.90
7028;DHT22;3555;53.248;10.336;2023-02-01T06:59:06;2.80;99.90
7028;DHT22;3555;53.248;10.336;2023-02-01T07:01:33;2.80;99.90
7028;DHT22;3555;53.248;10.336;2023-02-01T07:04:00;2.90;99.90
7028;DHT22;3555;53.248;10.336;2023-02-01T07:06:27;3.00;99.90
7028;DHT22;3555;53.248;10.336;2023-02-01T07:08:54;3.10;99.90
7028;DHT22;3555;53.248;10.336;2023-02-01T07:11:21;3.10;99.90
7028;DHT22;3555;53.248;10.336;2023-02-01T07:13:48;3.20;99.90
7028;DHT22;3555;53.248;10.336;2023-02-01T07:16:18;3.40;99.90
7028;DHT22;3555;53.248;10.336;2023-02-01T07:18:46;3.40;99.90
7028;DHT22;3555;53.248;10.336;2023-02-01T07:21:13;3.50;99.90
7028;DHT22;3555;53.248;10.336;2023-02-01T07:23:40;3.60;99.90
7028;DHT22;3555;53.248;10.336;2023-02-01T07:26:09;3.60;99.90
7028;DHT22;3555;53.248;10.336;2023-02-01T07:28:37;3.60;99.90
7028;DHT22;3555;53.248;10.336;2023-02-01T07:31:05;3.60;99.90
7028;DHT22;3555;53.248;10.336;2023-02-01T07:33:34;3.60;99.90
7028;DHT22;3555;53.248;10.336;2023-02-01T07:36:03;3.70;99.90
7028;DHT22;3555;53.248;10.336;2023-02-01T07:38:30;3.70;99.90
7028;DHT22;3555;53.248;10.336;2023-02-01T07:40:57;3.70;99.90
7028;DHT22;3555;53.248;10.336;2023-02-01T07:43:25;3.90;99.90
7028;DHT22;3555;53.248;10.336;2023-02-01T07:45:52;3.90;99.90
7028;DHT22;3555;53.248;10.336;2023-02-01T07:48:20;4.00;99.90
7028;DHT22;3555;53.248;10.336;2023-02-01T07:50:48;4.00;99.90
7028;DHT22;3555;53.248;10.336;2023-02-01T07:53:15;4.00;99.90
7028;DHT22;3555;53.248;10.336;2023-02-01T07:55:42;4.00;99.90
7028;DHT22;3555;53.248;10.336;2023-02-01T07:58:09;4.00;99.90
7028;DHT22;3555;53.248;10.336;2023-02-01T08:00:36;4.10;99.90
7028;DHT22;3555;53.248;10.336;2023-02-01T08:03:20;4.10;99.90
7028;DHT22;3555;53.248;10.336;2023-02-01T08:05:48;4.20;99.90
7028;DHT22;3555;53.248;10.336;2023-02-01T08:08:15;4.20;99.90
7028;DHT22;3555;53.248;10.336;2023-02-01T08:14:03;4.30;99.90
7028;DHT22;3555;53.248;10.336;2023-02-01T08:16:30;4.40;99.90
7028;DHT22;3555;53.248;10.336;2023-02-01T08:18:57;4.40;99.90
7028;DHT22;3555;53.248;10.336;2023-02-01T08:21:27;4.60;99.90
7028;DHT22;3555;53.248;10.336;2023-02-01T08:24:02;4.70;99.90
7028;DHT22;3555;53.248;10.336;2023-02-01T08:26:29;4.90;99.90
7028;DHT22;3555;53.248;10.336;2023-02-01T08:28:59;5.20;99.90
7028;DHT22;3555;53.248;10.336;2023-02-01T08:31:28;5.30;99.90
7028;DHT22;3555;53.248;10.336;2023-02-01T08:33:56;5.50;99.90
7028;DHT22;3555;53.248;10.336;2023-02-01T08:36:26;5.60;99.90
7028;DHT22;3555;53.248;10.336;2023-02-01T08:38:53;5.80;99.90
7028;DHT22;3555;53.248;10.336;2023-02-01T08:41:22;6.00;99.90
7028;DHT22;3555;53.248;10.336;2023-02-01T08:43:49;6.10;99.90
7028;DHT22;3555;53.248;10.336;2023-02-01T08:46:17;6.30;99.90
7028;DHT22;3555;53.248;10.336;2023-02-01T08:48:45;6.40;99.90
7028;DHT22;3555;53.248;10.336;2023-02-01T08:51:13;6.60;99.90
7028;DHT22;3555;53.248;10.336;2023-02-01T08:53:42;6.70;99.90
7028;DHT22;3555;53.248;10.336;2023-02-01T08:56:11;6.70;99.90
7028;DHT22;3555;53.248;10.336;2023-02-01T08:58:38;6.80;99.90
7028;DHT22;3555;53.248;10.336;2023-02-01T09:01:06;6.90;99.90
7028;DHT22;3555;53.248;10.336;2023-02-01T09:03:33;7.10;99.90
7028;DHT22;3555;53.248;10.336;2023-02-01T09:06:01;7.10;99.90
7028;DHT22;3555;53.248;10.336;2023-02-01T09:08:28;7.10;99.90
7028;DHT22;3555;53.248;10.336;2023-02-01T09:10:59;7.10;99.90
7028;DHT22;3555;53.248;10.336;2023-02-01T09:13:26;7.00;99.90
7028;DHT22;3555;53.248;10.336;2023-02-01T09:15:53;6.80;99.90
7028;DHT22;3555;53.248;10.336;2023-02-01T09:18:21;6.60;99.90
7028;DHT22;3555;53.248;10.336;2023-02-01T09:20:48;6.50;99.90
7028;DHT22;3555;53.248;10.336;2023-02-01T09:23:14;6.60;99.90
7028;DHT22;3555;53.248;10.336;2023-02-01T09:25:41;6.60;99.90
7028;DHT22;3555;53.248;10.336;2023-02-01T09:28:10;6.60;99.90
7028;DHT22;3555;53.248;10.336;2023-02-01T09:30:37;6.50;99.90
7028;DHT22;3555;53.248;10.336;2023-02-01T09:33:04;6.50;99.90
7028;DHT22;3555;53.248;10.336;2023-02-01T09:35:31;6.60;99.90
7028;DHT22;3555;53.248;10.336;2023-02-01T09:37:57;6.70;99.90
7028;DHT22;3555;53.248;10.336;2023-02-01T09:40:24;6.90;99.90
7028;DHT22;3555;53.248;10.336;2023-02-01T09:43:11;7.10;99.90
7028;DHT22;3555;53.248;10.336;2023-02-01T09:45:51;7.30;99.90
7028;DHT22;3555;53.248;10.336;2023-02-01T09:48:21;7.40;99.90
7028;DHT22;3555;53.248;10.336;2023-02-01T09:50:52;7.60;99.90
7028;DHT22;3555;53.248;10.336;2023-02-01T09:53:24;7.80;99.90
7028;DHT22;3555;53.248;10.336;2023-02-01T09:55:55;8.00;99.90
7028;DHT22;3555;53.248;10.336;2023-02-01T09:58:30;8.10;99.90
7028;DHT22;3555;53.248;10.336;2023-02-01T10:01:02;8.10;99.90
7028;DHT22;3555;53.248;10.336;2023-02-01T10:03:32;7.90;99.90
7028;DHT22;3555;53.248;10.336;2023-02-01T10:06:10;7.50;99.90
7028;DHT22;3555;53.248;10.336;2023-02-01T10:09:00;7.30;99.90
7028;DHT22;3555;53.248;10.336;2023-02-01T10:11:39;7.40;99.90
7028;DHT22;3555;53.248;10.336;2023-02-01T10:14:27;7.30;99.90
7028;DHT22;3555;53.248;10.336;2023-02-01T10:17:03;7.20;99.90
7028;DHT22;3555;53.248;10.336;2023-02-01T10:19:39;7.10;99.90
7028;DHT22;3555;53.248;10.336;2023-02-01T10:22:17;7.00;99.90
7028;DHT22;3555;53.248;10.336;2023-02-01T10:24:49;6.90;99.90
7028;DHT22;3555;53.248;10.336;2023-02-01T10:27:24;6.80;99.90
7028;DHT22;3555;53.248;10.336;2023-02-01T10:29:59;6.80;99.90
7028;DHT22;3555;53.248;10.336;2023-02-01T10:32:31;6.70;99.90
7028;DHT22;3555;53.248;10.336;2023-02-01T10:34:59;6.80;99.90
7028;DHT22;3555;53.248;10.336;2023-02-01T10:37:28;6.70;99.90
7028;DHT22;3555;53.248;10.336;2023-02-01T10:39:58;6.60;99.90
7028;DHT22;3555;53.248;10.336;2023-02-01T10:42:27;6.70;99.90
7028;DHT22;3555;53.248;10.336;2023-02-01T10:44:58;6.70;99.90
7028;DHT22;3555;53.248;10.336;2023-02-01T10:47:26;6.70;99.90
7028;DHT22;3555;53.248;10.336;2023-02-01T10:49:57;6.70;99.90
7028;DHT22;3555;53.248;10.336;2023-02-01T10:52:36;6.80;99.90
7028;DHT22;3555;53.248;10.336;2023-02-01T10:55:34;6.70;99.90
7028;DHT22;3555;53.248;10.336;2023-02-01T10:58:03;6.70;99.90
7028;DHT22;3555;53.248;10.336;2023-02-01T11:00:41;6.80;99.90
7028;DHT22;3555;53.248;10.336;2023-02-01T11:03:32;6.70;99.90
7028;DHT22;3555;53.248;10.336;2023-02-01T11:06:00;6.60;99.90
7028;DHT22;3555;53.248;10.336;2023-02-01T11:08:28;6.60;99.90
7028;DHT22;3555;53.248;10.336;2023-02-01T11:10:59;6.50;99.90
7028;DHT22;3555;53.248;10.336;2023-02-01T11:13:31;6.40;99.90
7028;DHT22;3555;53.248;10.336;2023-02-01T11:16:03;6.40;99.90
7028;DHT22;3555;53.248;10.336;2023-02-01T11:18:32;6.40;99.90
7028;DHT22;3555;53.248;10.336;2023-02-01T11:21:02;6.50;99.90
7028;DHT22;3555;53.248;10.336;2023-02-01T11:23:30;6.40;99.90
7028;DHT22;3555;53.248;10.336;2023-02-01T11:26:00;6.40;99.90
7028;DHT22;3555;53.248;10.336;2023-02-01T11:28:30;6.40;99.90
7028;DHT22;3555;53.248;10.336;2023-02-01T11:31:00;6.40;99.90
7028;DHT22;3555;53.248;10.336;2023-02-01T11:33:31;6.40;99.90
7028;DHT22;3555;53.248;10.336;2023-02-01T11:36:05;6.30;99.90
7028;DHT22;3555;53.248;10.336;2023-02-01T11:38:34;6.40;99.90
7028;DHT22;3555;53.248;10.336;2023-02-01T11:41:12;6.40;99.90
7028;DHT22;3555;53.248;10.336;2023-02-01T11:43:52;6.30;99.90
7028;DHT22;3555;53.248;10.336;2023-02-01T11:46:23;6.30;99.90
7028;DHT22;3555;53.248;10.336;2023-02-01T11:48:53;6.30;99.90
7028;DHT22;3555;53.248;10.336;2023-02-01T11:51:41;6.30;99.90
7028;DHT22;3555;53.248;10.336;2023-02-01T11:54:30;6.30;99.90
7028;DHT22;3555;53.248;10.336;2023-02-01T11:57:12;6.10;99.90
7028;DHT22;3555;53.248;10.336;2023-02-01T11:59:53;6.00;99.90
7028;DHT22;3555;53.248;10.336;2023-02-01T12:02:59;6.00;99.90
7028;DHT22;3555;53.248;10.336;2023-02-01T12:05:38;5.90;99.90
7028;DHT22;3555;53.248;10.336;2023-02-01T12:08:38;5.90;99.90
7028;DHT22;3555;53.248;10.336;2023-02-01T12:11:21;5.90;99.90
7028;DHT22;3555;53.248;10.336;2023-02-01T12:13:59;5.90;99.90
7028;DHT22;3555;53.248;10.336;2023-02-01T12:16:34;5.80;99.90
7028;DHT22;3555;53.248;10.336;2023-02-01T12:19:20;5.80;99.90
7028;DHT22;3555;53.248;10.336;2023-02-01T12:22:16;5.80;99.90
7028;DHT22;3555;53.248;10.336;2023-02-01T12:25:18;5.70;99.90
7028;DHT22;3555;53.248;10.336;2023-02-01T12:28:06;5.50;99.90
7028;DHT22;3555;53.248;10.336;2023-02-01T12:30:45;5.40;99.90
7028;DHT22;3555;53.248;10.336;2023-02-01T12:33:21;5.30;99.90
7028;DHT22;3555;53.248;10.336;2023-02-01T12:36:01;5.30;99.90
7028;DHT22;3555;53.248;10.336;2023-02-01T12:38:41;5.20;99.90
7028;DHT22;3555;53.248;10.336;2023-02-01T12:41:28;5.20;99.90
7028;DHT22;3555;53.248;10.336;2023-02-01T12:44:02;5.00;99.90
7028;DHT22;3555;53.248;10.336;2023-02-01T12:46:35;5.00;99.90
7028;DHT22;3555;53.248;10.336;2023-02-01T12:49:06;4.90;99.90
7028;DHT22;3555;53.248;10.336;2023-02-01T12:51:37;5.00;99.90
7028;DHT22;3555;53.248;10.336;2023-02-01T12:54:11;4.90;99.90
7028;DHT22;3555;53.248;10.336;2023-02-01T12:56:42;5.00;99.90
7028;DHT22;3555;53.248;10.336;2023-02-01T12:59:18;5.10;99.90
7028;DHT22;3555;53.248;10.336;2023-02-01T13:01:49;5.10;99.90
7028;DHT22;3555;53.248;10.336;2023-02-01T13:04:26;4.90;99.90
7028;DHT22;3555;53.248;10.336;2023-02-01T13:07:00;4.80;99.90
7028;DHT22;3555;53.248;10.336;2023-02-01T13:09:36;4.70;99.90
7028;DHT22;3555;53.248;10.336;2023-02-01T13:12:10;4.60;99.90
7028;DHT22;3555;53.248;10.336;2023-02-01T13:14:43;4.60;99.90
7028;DHT22;3555;53.248;10.336;2023-02-01T13:17:15;4.40;99.90
7028;DHT22;3555;53.248;10.336;2023-02-01T13:19:46;4.20;99.90
7028;DHT22;3555;53.248;10.336;2023-02-01T13:22:19;3.60;99.90
7028;DHT22;3555;53.248;10.336;2023-02-01T13:24:51;3.80;99.90
7028;DHT22;3555;53.248;10.336;2023-02-01T13:27:19;3.80;99.90
7028;DHT22;3555;53.248;10.336;2023-02-01T13:29:52;3.80;99.90
7028;DHT22;3555;53.248;10.336;2023-02-01T13:35:37;3.90;99.90
7028;DHT22;3555;53.248;10.336;2023-02-01T13:38:34;3.90;99.90
7028;DHT22;3555;53.248;10.336;2023-02-01T13:41:19;4.00;99.90
7028;DHT22;3555;53.248;10.336;2023-02-01T13:43:54;4.00;99.90
7028;DHT22;3555;53.248;10.336;2023-02-01T13:46:22;4.00;99.90
7028;DHT22;3555;53.248;10.336;2023-02-01T13:48:51;4.10;99.90
7028;DHT22;3555;53.248;10.336;2023-02-01T13:51:33;4.20;99.90
7028;DHT22;3555;53.248;10.336;2023-02-01T13:54:01;4.40;99.90
7028;DHT22;3555;53.248;10.336;2023-02-01T13:56:39;4.60;99.90
7028;DHT22;3555;53.248;10.336;2023-02-01T14:05:56;4.50;99.90
7028;DHT22;3555;53.248;10.336;2023-02-01T14:08:37;4.40;99.90
7028;DHT22;3555;53.248;10.336;2023-02-01T14:11:05;4.40;99.90
7028;DHT22;3555;53.248;10.336;2023-02-01T14:13:34;4.40;99.90
7028;DHT22;3555;53.248;10.336;2023-02-01T14:16:13;4.40;99.90
7028;DHT22;3555;53.248;10.336;2023-02-01T14:18:58;4.30;99.90
7028;DHT22;3555;53.248;10.336;2023-02-01T14:21:28;4.40;99.90
7028;DHT22;3555;53.248;10.336;2023-02-01T14:23:58;4.40;99.90
7028;DHT22;3555;53.248;10.336;2023-02-01T14:26:27;4.40;99.90
7028;DHT22;3555;53.248;10.336;2023-02-01T14:29:22;4.50;99.90
7028;DHT22;3555;53.248;10.336;2023-02-01T14:31:58;4.50;99.90
7028;DHT22;3555;53.248;10.336;2023-02-01T14:34:34;4.50;99.90
7028;DHT22;3555;53.248;10.336;2023-02-01T14:37:05;4.60;99.90
7028;DHT22;3555;53.248;10.336;2023-02-01T14:39:37;4.60;99.90
7028;DHT22;3555;53.248;10.336;2023-02-01T14:42:18;4.70;99.90
7028;DHT22;3555;53.248;10.336;2023-02-01T14:44:48;4.70;99.90
7028;DHT22;3555;53.248;10.336;2023-02-01T14:47:31;4.60;99.90
7028;DHT22;3555;53.248;10.336;2023-02-01T14:53:05;4.50;99.90
7028;DHT22;3555;53.248;10.336;2023-02-01T14:55:37;4.60;99.90
7028;DHT22;3555;53.248;10.336;2023-02-01T14:58:14;4.60;99.90
7028;DHT22;3555;53.248;10.336;2023-02-01T15:00:51;4.60;99.90
7028;DHT22;3555;53.248;10.336;2023-02-01T15:03:53;4.70;99.90
7028;DHT22;3555;53.248;10.336;2023-02-01T15:06:37;4.50;99.90
7028;DHT22;3555;53.248;10.336;2023-02-01T15:09:10;4.30;99.90
7028;DHT22;3555;53.248;10.336;2023-02-01T15:11:56;4.30;99.90
7028;DHT22;3555;53.248;10.336;2023-02-01T15:14:23;4.10;99.90
7028;DHT22;3555;53.248;10.336;2023-02-01T15:16:51;4.00;99.90
7028;DHT22;3555;53.248;10.336;2023-02-01T15:19:21;3.90;99.90
7028;DHT22;3555;53.248;10.336;2023-02-01T15:21:49;3.90;99.90
7028;DHT22;3555;53.248;10.336;2023-02-01T15:24:21;3.90;99.90
7028;DHT22;3555;53.248;10.336;2023-02-01T15:26:49;3.90;99.90
7028;DHT22;3555;53.248;10.336;2023-02-01T15:29:17;3.90;99.90
7028;DHT22;3555;53.248;10.336;2023-02-01T15:31:46;4.00;99.90
7028;DHT22;3555;53.248;10.336;2023-02-01T15:34:14;4.00;99.90
7028;DHT22;3555;53.248;10.336;2023-02-01T15:36:42;4.00;99.90
7028;DHT22;3555;53.248;10.336;2023-02-01T15:39:18;4.00;99.90
7028;DHT22;3555;53.248;10.336;2023-02-01T15:41:48;4.00;99.90
7028;DHT22;3555;53.248;10.336;2023-02-01T15:44:19;4.00;99.90
7028;DHT22;3555;53.248;10.336;2023-02-01T15:46:49;4.10;99.90
7028;DHT22;3555;53.248;10.336;2023-02-01T15:49:24;4.20;99.90
7028;DHT22;3555;53.248;10.336;2023-02-01T15:51:53;4.10;99.90
7028;DHT22;3555;53.248;10.336;2023-02-01T15:54:26;4.20;99.90
7028;DHT22;3555;53.248;10.336;2023-02-01T15:56:58;4.30;99.90
7028;DHT22;3555;53.248;10.336;2023-02-01T15:59:35;4.30;99.90
7028;DHT22;3555;53.248;10.336;2023-02-01T16:02:03;4.20;99.90
7028;DHT22;3555;53.248;10.336;2023-02-01T16:04:31;4.20;99.90
7028;DHT22;3555;53.248;10.336;2023-02-01T16:06:59;4.20;99.90
7028;DHT22;3555;53.248;10.336;2023-02-01T16:09:37;3.60;99.90
7028;DHT22;3555;53.248;10.336;2023-02-01T16:12:30;4.20;99.90
7028;DHT22;3555;53.248;10.336;2023-02-01T16:14:59;4.20;99.90
7028;DHT22;3555;53.248;10.336;2023-02-01T16:17:26;4.20;99.90
7028;DHT22;3555;53.248;10.336;2023-02-01T16:19:54;4.10;99.90
7028;DHT22;3555;53.248;10.336;2023-02-01T16:22:22;4.10;99.90
7028;DHT22;3555;53.248;10.336;2023-02-01T16:24:49;4.10;99.90
7028;DHT22;3555;53.248;10.336;2023-02-01T16:27:16;4.10;99.90
7028;DHT22;3555;53.248;10.336;2023-02-01T16:29:43;3.90;99.90
7028;DHT22;3555;53.248;10.336;2023-02-01T16:32:15;4.00;99.90
7028;DHT22;3555;53.248;10.336;2023-02-01T16:34:42;4.00;99.90
7028;DHT22;3555;53.248;10.336;2023-02-01T16:37:12;4.00;99.90
7028;DHT22;3555;53.248;10.336;2023-02-01T16:39:40;4.10;99.90
7028;DHT22;3555;53.248;10.336;2023-02-01T16:42:16;4.20;99.90
7028;DHT22;3555;53.248;10.336;2023-02-01T16:44:43;4.30;99.90
7028;DHT22;3555;53.248;10.336;2023-02-01T16:47:12;4.30;99.90
7028;DHT22;3555;53.248;10.336;2023-02-01T16:49:41;4.30;99.90